sensor_id;sensor_type;location;lat;lon;timestamp;pressure;altitude;pressure_sealevel;temperature;humidity
52137;BME280;69622;49.570;10.986;2023-08-17T00:02:50;98466.25;;;21.56;100.00
52137;BME280;69622;49.570;10.986;2023-08-17T00:05:51;98466.03;;;21.28;100.00
52137;BME280;69622;49.570;10.986;2023-08-17T00:08:53;98461.75;;;21.27;100.00
52137;BME280;69622;49.570;10.986;2023-08-17T00:11:54;98464.50;;;21.10;100.00
52137;BME280;69622;49.570;10.986;2023-08-17T00:14:56;98476.38;;;21.14;100.00
52137;BME280;69622;49.570;10.986;2023-08-17T00:17:57;98480.84;;;21.14;100.00
52137;BME280;69622;49.570;10.986;2023-08-17T00:20:59;98482.00;;;21.11;100.00
52137;BME280;69622;49.570;10.986;2023-08-17T00:24:00;98476.03;;;21.17;100.00
52137;BME280;69622;49.570;10.986;2023-08-17T00:27:02;98478.50;;;21.19;100.00
52137;BME280;69622;49.570;10.986;2023-08-17T00:30:05;98489.13;;;21.11;100.00
52137;BME280;69622;49.570;10.986;2023-08-17T00:33:06;98496.56;;;20.92;100.00
52137;BME280;69622;49.570;10.986;2023-08-17T00:36:08;98519.91;;;20.81;100.00
52137;BME280;69622;49.570;10.986;2023-08-17T00:39:09;98521.09;;;20.78;100.00
52137;BME280;69622;49.570;10.986;2023-08-17T00:42:11;98517.69;;;20.92;100.00
52137;BME280;69622;49.570;10.986;2023-08-17T00:45:12;98511.53;;;21.00;100.00
52137;BME280;69622;49.570;10.986;2023-08-17T00:48:14;98506.44;;;21.13;100.00
52137;BME280;69622;49.570;10.986;2023-08-17T00:51:15;98507.94;;;21.16;100.00
52137;BME280;69622;49.570;10.986;2023-08-17T00:54:23;98515.09;;;21.07;100.00
52137;BME280;69622;49.570;10.986;2023-08-17T00:57:25;98514.47;;;21.43;100.00
52137;BME280;69622;49.570;10.986;2023-08-17T01:00:28;98515.06;;;21.15;100.00
52137;BME280;69622;49.570;10.986;2023-08-17T01:03:30;98519.09;;;21.26;100.00
52137;BME280;69622;49.570;10.986;2023-08-17T01:06:33;98506.13;;;21.16;100.00
52137;BME280;69622;49.570;10.986;2023-08-17T01:09:35;98505.63;;;21.36;100.00
52137;BME280;69622;49.570;10.986;2023-08-17T01:12:58;98504.13;;;21.18;100.00
52137;BME280;69622;49.570;10.986;2023-08-17T01:16:05;98509.63;;;21.09;100.00
52137;BME280;69622;49.570;10.986;2023-08-17T01:19:09;98514.56;;;21.12;100.00
52137;BME280;69622;49.570;10.986;2023-08-17T01:22:17;98510.53;;;21.01;100.00
52137;BME280;69622;49.570;10.986;2023-08-17T01:25:19;98507.31;;;20.91;100.00
52137;BME280;69622;49.570;10.986;2023-08-17T01:28:21;98509.59;;;20.94;100.00
52137;BME280;69622;49.570;10.986;2023-08-17T01:31:31;98498.19;;;20.93;100.00
52137;BME280;69622;49.570;10.986;2023-08-17T01:34:39;98494.38;;;20.96;100.00
52137;BME280;69622;49.570;10.986;2023-08-17T01:37:42;98497.44;;;20.85;100.00
52137;BME280;69622;49.570;10.986;2023-08-17T01:40:45;98493.38;;;20.74;100.00
52137;BME280;69622;49.570;10.986;2023-08-17T01:43:49;98491.78;;;20.65;100.00
52137;BME280;69622;49.570;10.986;2023-08-17T01:46:51;98488.03;;;20.82;100.00
52137;BME280;69622;49.570;10.986;2023-08-17T01:49:52;98488.97;;;20.89;100.00
52137;BME280;69622;49.570;10.986;2023-08-17T01:52:54;98487.97;;;20.90;100.00
52137;BME280;69622;49.570;10.986;2023-08-17T01:55:55;98481.06;;;20.89;100.00
52137;BME280;69622;49.570;10.986;2023-08-17T01:58:57;98482.38;;;21.08;100.00
52137;BME280;69622;49.570;10.986;2023-08-17T02:01:58;98479.97;;;20.99;100.00
52137;BME280;69622;49.570;10.986;2023-08-17T02:05:00;98464.91;;;20.84;100.00
52137;BME280;69622;49.570;10.986;2023-08-17T02:08:01;98460.19;;;20.94;100.00
52137;BME280;69622;49.570;10.986;2023-08-17T02:11:03;98453.66;;;21.05;100.00
52137;BME280;69622;49.570;10.986;2023-08-17T02:14:05;98464.56;;;20.87;100.00
52137;BME280;69622;49.570;10.986;2023-08-17T02:17:06;98466.28;;;20.95;100.00
52137;BME280;69622;49.570;10.986;2023-08-17T02:20:08;98451.44;;;20.94;100.00
52137;BME280;69622;49.570;10.986;2023-08-17T02:23:10;98453.41;;;20.77;100.00
52137;BME280;69622;49.570;10.986;2023-08-17T02:26:11;98451.56;;;20.78;100.00
52137;BME280;69622;49.570;10.986;2023-08-17T02:29:13;98445.19;;;20.72;100.00
52137;BME280;69622;49.570;10.986;2023-08-17T02:32:14;98448.56;;;20.81;100.00
52137;BME280;69622;49.570;10.986;2023-08-17T02:35:16;98445.41;;;20.85;100.00
52137;BME280;69622;49.570;10.986;2023-08-17T02:38:18;98442.81;;;20.77;100.00
52137;BME280;69622;49.570;10.986;2023-08-17T02:41:19;98434.03;;;20.85;100.00
52137;BME280;69622;49.570;10.986;2023-08-17T02:44:21;98438.00;;;20.81;100.00
52137;BME280;69622;49.570;10.986;2023-08-17T02:47:22;98428.00;;;20.91;100.00
52137;BME280;69622;49.570;10.986;2023-08-17T02:50:24;98425.16;;;20.78;100.00
52137;BME280;69622;49.570;10.986;2023-08-17T02:53:26;98433.19;;;20.61;100.00
52137;BME280;69622;49.570;10.986;2023-08-17T02:56:27;98432.97;;;20.48;100.00
52137;BME280;69622;49.570;10.986;2023-08-17T02:59:29;98433.91;;;20.55;100.00
52137;BME280;69622;49.570;10.986;2023-08-17T03:02:30;98430.81;;;20.52;100.00
52137;BME280;69622;49.570;10.986;2023-08-17T03:05:33;98429.69;;;20.46;100.00
52137;BME280;69622;49.570;10.986;2023-08-17T03:08:34;98429.41;;;20.41;100.00
52137;BME280;69622;49.570;10.986;2023-08-17T03:11:36;98432.47;;;20.22;100.00
52137;BME280;69622;49.570;10.986;2023-08-17T03:14:37;98428.13;;;20.29;100.00
52137;BME280;69622;49.570;10.986;2023-08-17T03:17:39;98430.91;;;20.36;100.00
52137;BME280;69622;49.570;10.986;2023-08-17T03:20:40;98440.78;;;20.33;100.00
52137;BME280;69622;49.570;10.986;2023-08-17T03:23:41;98444.50;;;20.24;100.00
52137;BME280;69622;49.570;10.986;2023-08-17T03:26:43;98450.88;;;20.30;100.00
52137;BME280;69622;49.570;10.986;2023-08-17T03:29:44;98447.06;;;20.32;100.00
52137;BME280;69622;49.570;10.986;2023-08-17T03:32:46;98438.16;;;20.33;100.00
52137;BME280;69622;49.570;10.986;2023-08-17T03:35:47;98436.00;;;20.37;100.00
52137;BME280;69622;49.570;10.986;2023-08-17T03:38:49;98438.88;;;20.50;100.00
52137;BME280;69622;49.570;10.986;2023-08-17T03:41:50;98432.53;;;20.37;100.00
52137;BME280;69622;49.570;10.986;2023-08-17T03:44:52;98430.53;;;20.39;100.00
52137;BME280;69622;49.570;10.986;2023-08-17T03:47:54;98430.94;;;20.27;100.00
52137;BME280;69622;49.570;10.986;2023-08-17T03:50:55;98438.47;;;20.39;100.00
52137;BME280;69622;49.570;10.986;2023-08-17T03:53:57;98440.88;;;20.48;100.00
52137;BME280;69622;49.570;10.986;2023-08-17T03:56:58;98444.25;;;20.42;100.00
52137;BME280;69622;49.570;10.986;2023-08-17T03:59:59;98449.16;;;20.45;100.00
52137;BME280;69622;49.570;10.986;2023-08-17T04:03:01;98446.59;;;20.29;100.00
52137;BME280;69622;49.570;10.986;2023-08-17T04:06:06;98438.69;;;20.29;100.00
52137;BME280;69622;49.570;10.986;2023-08-17T04:09:08;98440.56;;;20.20;100.00
52137;BME280;69622;49.570;10.986;2023-08-17T04:12:09;98442.06;;;20.15;100.00
52137;BME280;69622;49.570;10.986;2023-08-17T04:15:10;98451.94;;;20.21;100.00
52137;BME280;69622;49.570;10.986;2023-08-17T04:18:12;98451.25;;;20.19;100.00
52137;BME280;69622;49.570;10.986;2023-08-17T04:21:13;98455.72;;;20.18;100.00
52137;BME280;69622;49.570;10.986;2023-08-17T04:24:15;98453.25;;;20.17;100.00
52137;BME280;69622;49.570;10.986;2023-08-17T04:27:16;98453.91;;;20.19;100.00
52137;BME280;69622;49.570;10.986;2023-08-17T04:30:18;98454.59;;;20.21;100.00
52137;BME280;69622;49.570;10.986;2023-08-17T04:33:20;98455.81;;;20.02;100.00
52137;BME280;69622;49.570;10.986;2023-08-17T04:36:21;98469.50;;;20.06;100.00
52137;BME280;69622;49.570;10.986;2023-08-17T04:39:23;98470.31;;;20.06;100.00
52137;BME280;69622;49.570;10.986;2023-08-17T04:42:24;98471.63;;;20.02;100.00
52137;BME280;69622;49.570;10.986;2023-08-17T04:45:26;98465.16;;;20.13;100.00
52137;BME280;69622;49.570;10.986;2023-08-17T04:48:28;98460.34;;;20.16;100.00
52137;BME280;69622;49.570;10.986;2023-08-17T04:51:30;98462.19;;;20.16;100.00
52137;BME280;69622;49.570;10.986;2023-08-17T04:54:31;98466.69;;;20.07;100.00
52137;BME280;69622;49.570;10.986;2023-08-17T04:57:33;98462.09;;;20.01;100.00
52137;BME280;69622;49.570;10.986;2023-08-17T05:00:34;98465.69;;;20.08;100.00
52137;BME280;69622;49.570;10.986;2023-08-17T05:03:35;98470.00;;;20.01;100.00
52137;BME280;69622;49.570;10.986;2023-08-17T05:06:37;98476.50;;;19.82;100.00
52137;BME280;69622;49.570;10.986;2023-08-17T05:09:39;98480.09;;;19.97;100.00
52137;BME280;69622;49.570;10.986;2023-08-17T05:12:41;98468.72;;;19.97;100.00
52137;BME280;69622;49.570;10.986;2023-08-17T05:15:42;98466.59;;;19.92;100.00
52137;BME280;69622;49.570;10.986;2023-08-17T05:18:44;98471.81;;;20.00;100.00
52137;BME280;69622;49.570;10.986;2023-08-17T05:21:45;98469.22;;;19.92;100.00
52137;BME280;69622;49.570;10.986;2023-08-17T05:24:47;98463.22;;;20.07;100.00
52137;BME280;69622;49.570;10.986;2023-08-17T05:27:48;98470.75;;;20.18;100.00
52137;BME280;69622;49.570;10.986;2023-08-17T05:30:53;98470.16;;;20.08;100.00
52137;BME280;69622;49.570;10.986;2023-08-17T05:33:54;98465.88;;;20.07;100.00
52137;BME280;69622;49.570;10.986;2023-08-17T05:36:56;98464.63;;;20.17;100.00
52137;BME280;69622;49.570;10.986;2023-08-17T05:39:57;98476.53;;;20.21;100.00
52137;BME280;69622;49.570;10.986;2023-08-17T05:42:59;98482.81;;;20.12;100.00
52137;BME280;69622;49.570;10.986;2023-08-17T05:46:01;98481.81;;;20.21;100.00
52137;BME280;69622;49.570;10.986;2023-08-17T05:49:04;98479.19;;;20.13;100.00
52137;BME280;69622;49.570;10.986;2023-08-17T05:52:05;98483.72;;;20.36;100.00
52137;BME280;69622;49.570;10.986;2023-08-17T05:55:07;98476.94;;;20.33;100.00
52137;BME280;69622;49.570;10.986;2023-08-17T05:58:09;98481.34;;;20.41;100.00
52137;BME280;69622;49.570;10.986;2023-08-17T06:01:11;98469.09;;;20.56;100.00
52137;BME280;69622;49.570;10.986;2023-08-17T06:04:13;98476.00;;;20.57;100.00
52137;BME280;69622;49.570;10.986;2023-08-17T06:07:14;98474.66;;;20.84;100.00
52137;BME280;69622;49.570;10.986;2023-08-17T06:10:15;98478.47;;;20.81;100.00
52137;BME280;69622;49.570;10.986;2023-08-17T06:13:17;98473.44;;;20.72;100.00
52137;BME280;69622;49.570;10.986;2023-08-17T06:16:18;98471.00;;;21.31;100.00
52137;BME280;69622;49.570;10.986;2023-08-17T06:19:20;98476.72;;;21.11;100.00
52137;BME280;69622;49.570;10.986;2023-08-17T06:22:21;98475.69;;;20.98;100.00
52137;BME280;69622;49.570;10.986;2023-08-17T06:25:23;98469.88;;;21.40;100.00
52137;BME280;69622;49.570;10.986;2023-08-17T06:28:25;98465.25;;;21.04;100.00
52137;BME280;69622;49.570;10.986;2023-08-17T06:31:26;98471.06;;;21.14;100.00
52137;BME280;69622;49.570;10.986;2023-08-17T06:34:28;98467.41;;;21.38;100.00
52137;BME280;69622;49.570;10.986;2023-08-17T06:37:30;98462.50;;;21.35;100.00
52137;BME280;69622;49.570;10.986;2023-08-17T06:40:31;98456.78;;;21.46;100.00
52137;BME280;69622;49.570;10.986;2023-08-17T06:43:33;98460.94;;;21.41;100.00
52137;BME280;69622;49.570;10.986;2023-08-17T06:46:34;98460.75;;;21.42;100.00
52137;BME280;69622;49.570;10.986;2023-08-17T06:49:36;98460.97;;;21.70;100.00
52137;BME280;69622;49.570;10.986;2023-08-17T06:52:37;98457.75;;;21.90;100.00
52137;BME280;69622;49.570;10.986;2023-08-17T06:55:40;98462.34;;;21.66;100.00
52137;BME280;69622;49.570;10.986;2023-08-17T06:58:42;98467.50;;;22.04;100.00
52137;BME280;69622;49.570;10.986;2023-08-17T07:01:43;98464.88;;;21.89;100.00
52137;BME280;69622;49.570;10.986;2023-08-17T07:04:44;98465.44;;;21.85;100.00
52137;BME280;69622;49.570;10.986;2023-08-17T07:07:46;98475.56;;;21.96;100.00
52137;BME280;69622;49.570;10.986;2023-08-17T07:10:47;98474.06;;;21.93;100.00
52137;BME280;69622;49.570;10.986;2023-08-17T07:13:49;98476.38;;;21.96;100.00
52137;BME280;69622;49.570;10.986;2023-08-17T07:16:50;98478.53;;;21.93;100.00
52137;BME280;69622;49.570;10.986;2023-08-17T07:19:52;98473.44;;;22.21;100.00
52137;BME280;69622;49.570;10.986;2023-08-17T07:23:13;98480.69;;;22.48;100.00
52137;BME280;69622;49.570;10.986;2023-08-17T07:26:15;98483.03;;;22.58;100.00
52137;BME280;69622;49.570;10.986;2023-08-17T07:29:16;98479.47;;;22.72;100.00
52137;BME280;69622;49.570;10.986;2023-08-17T07:32:18;98490.47;;;22.69;100.00
52137;BME280;69622;49.570;10.986;2023-08-17T07:35:19;98485.41;;;22.89;100.00
52137;BME280;69622;49.570;10.986;2023-08-17T07:38:21;98487.38;;;22.65;100.00
52137;BME280;69622;49.570;10.986;2023-08-17T07:41:22;98483.09;;;22.86;100.00
52137;BME280;69622;49.570;10.986;2023-08-17T07:44:24;98483.03;;;22.79;100.00
52137;BME280;69622;49.570;10.986;2023-08-17T07:47:25;98487.22;;;23.10;100.00
52137;BME280;69622;49.570;10.986;2023-08-17T07:50:27;98479.06;;;23.11;100.00
52137;BME280;69622;49.570;10.986;2023-08-17T07:53:29;98478.53;;;23.22;100.00
52137;BME280;69622;49.570;10.986;2023-08-17T07:56:30;98484.47;;;23.24;100.00
52137;BME280;69622;49.570;10.986;2023-08-17T07:59:32;98481.38;;;23.49;100.00
52137;BME280;69622;49.570;10.986;2023-08-17T08:02:33;98479.16;;;23.24;100.00
52137;BME280;69622;49.570;10.986;2023-08-17T08:05:35;98478.16;;;23.25;100.00
52137;BME280;69622;49.570;10.986;2023-08-17T08:08:36;98479.38;;;23.23;100.00
52137;BME280;69622;49.570;10.986;2023-08-17T08:11:38;98474.75;;;23.59;100.00
52137;BME280;69622;49.570;10.986;2023-08-17T08:14:39;98474.28;;;23.90;100.00
52137;BME280;69622;49.570;10.986;2023-08-17T08:17:41;98481.50;;;23.62;98.78
52137;BME280;69622;49.570;10.986;2023-08-17T08:20:42;98487.47;;;23.71;98.49
52137;BME280;69622;49.570;10.986;2023-08-17T08:23:44;98474.41;;;23.69;100.00
52137;BME280;69622;49.570;10.986;2023-08-17T08:26:45;98470.94;;;23.75;100.00
52137;BME280;69622;49.570;10.986;2023-08-17T08:29:47;98470.50;;;24.13;96.95
52137;BME280;69622;49.570;10.986;2023-08-17T08:32:49;98465.56;;;24.03;95.75
52137;BME280;69622;49.570;10.986;2023-08-17T08:35:51;98468.63;;;24.48;92.39
52137;BME280;69622;49.570;10.986;2023-08-17T08:38:53;98467.22;;;24.04;90.77
52137;BME280;69622;49.570;10.986;2023-08-17T08:41:55;98460.66;;;24.55;93.10
52137;BME280;69622;49.570;10.986;2023-08-17T08:44:57;98461.91;;;24.72;90.90
52137;BME280;69622;49.570;10.986;2023-08-17T08:48:00;98460.28;;;24.71;95.12
52137;BME280;69622;49.570;10.986;2023-08-17T08:51:03;98457.63;;;24.64;87.93
52137;BME280;69622;49.570;10.986;2023-08-17T08:54:12;98464.53;;;24.52;93.47
52137;BME280;69622;49.570;10.986;2023-08-17T08:57:15;98455.38;;;24.68;95.22
52137;BME280;69622;49.570;10.986;2023-08-17T09:00:18;98453.69;;;24.47;91.28
52137;BME280;69622;49.570;10.986;2023-08-17T09:03:20;98458.84;;;24.82;95.01
52137;BME280;69622;49.570;10.986;2023-08-17T09:06:23;98457.44;;;24.99;90.63
52137;BME280;69622;49.570;10.986;2023-08-17T09:09:26;98458.00;;;24.48;93.34
52137;BME280;69622;49.570;10.986;2023-08-17T09:12:30;98458.03;;;24.68;94.99
52137;BME280;69622;49.570;10.986;2023-08-17T09:15:41;98462.31;;;24.75;87.10
52137;BME280;69622;49.570;10.986;2023-08-17T09:18:43;98459.50;;;25.17;80.41
52137;BME280;69622;49.570;10.986;2023-08-17T09:21:44;98451.50;;;25.23;82.38
52137;BME280;69622;49.570;10.986;2023-08-17T09:24:51;98448.84;;;25.36;81.99
52137;BME280;69622;49.570;10.986;2023-08-17T09:27:53;98441.84;;;25.49;82.75
52137;BME280;69622;49.570;10.986;2023-08-17T09:30:57;98449.44;;;25.38;85.07
52137;BME280;69622;49.570;10.986;2023-08-17T09:34:05;98441.09;;;25.28;86.71
52137;BME280;69622;49.570;10.986;2023-08-17T09:37:07;98443.13;;;25.06;87.26
52137;BME280;69622;49.570;10.986;2023-08-17T09:40:08;98434.69;;;25.49;84.73
52137;BME280;69622;49.570;10.986;2023-08-17T09:43:10;98441.78;;;25.82;81.61
52137;BME280;69622;49.570;10.986;2023-08-17T09:46:12;98440.59;;;25.71;83.72
52137;BME280;69622;49.570;10.986;2023-08-17T09:49:14;98437.34;;;25.49;75.19
52137;BME280;69622;49.570;10.986;2023-08-17T09:52:15;98435.44;;;25.89;75.59
52137;BME280;69622;49.570;10.986;2023-08-17T09:55:17;98429.94;;;25.64;80.01
52137;BME280;69622;49.570;10.986;2023-08-17T09:58:18;98431.34;;;25.80;79.96
52137;BME280;69622;49.570;10.986;2023-08-17T10:01:21;98434.72;;;26.07;78.90
52137;BME280;69622;49.570;10.986;2023-08-17T10:04:23;98431.28;;;26.00;78.18
52137;BME280;69622;49.570;10.986;2023-08-17T10:07:30;98429.19;;;26.09;79.21
52137;BME280;69622;49.570;10.986;2023-08-17T10:10:35;98426.63;;;25.89;78.66
52137;BME280;69622;49.570;10.986;2023-08-17T10:16:51;98423.03;;;26.08;74.51
52137;BME280;69622;49.570;10.986;2023-08-17T10:19:58;98422.13;;;26.27;74.19
52137;BME280;69622;49.570;10.986;2023-08-17T10:23:24;98419.78;;;26.00;74.44
52137;BME280;69622;49.570;10.986;2023-08-17T10:26:25;98419.03;;;26.37;73.42
52137;BME280;69622;49.570;10.986;2023-08-17T10:29:27;98423.22;;;26.83;73.05
52137;BME280;69622;49.570;10.986;2023-08-17T10:32:29;98418.56;;;26.97;70.71
52137;BME280;69622;49.570;10.986;2023-08-17T10:35:33;98413.19;;;26.78;71.93
52137;BME280;69622;49.570;10.986;2023-08-17T10:38:35;98413.44;;;27.02;69.09
52137;BME280;69622;49.570;10.986;2023-08-17T10:41:46;98408.75;;;26.66;76.60
52137;BME280;69622;49.570;10.986;2023-08-17T10:44:48;98405.09;;;27.17;72.52
52137;BME280;69622;49.570;10.986;2023-08-17T10:47:59;98406.63;;;27.49;68.84
52137;BME280;69622;49.570;10.986;2023-08-17T10:51:03;98409.06;;;27.07;74.57
52137;BME280;69622;49.570;10.986;2023-08-17T10:54:05;98404.34;;;27.28;70.27
52137;BME280;69622;49.570;10.986;2023-08-17T11:00:38;98398.53;;;27.37;71.60
52137;BME280;69622;49.570;10.986;2023-08-17T11:03:41;98404.00;;;27.61;68.58
52137;BME280;69622;49.570;10.986;2023-08-17T11:06:44;98408.06;;;27.70;67.38
52137;BME280;69622;49.570;10.986;2023-08-17T11:09:46;98403.88;;;27.56;69.59
52137;BME280;69622;49.570;10.986;2023-08-17T11:12:47;98399.22;;;27.69;69.80
52137;BME280;69622;49.570;10.986;2023-08-17T11:15:53;98399.84;;;27.28;69.45
52137;BME280;69622;49.570;10.986;2023-08-17T11:18:55;98394.69;;;27.08;71.62
52137;BME280;69622;49.570;10.986;2023-08-17T11:22:00;98398.16;;;27.34;76.21
52137;BME280;69622;49.570;10.986;2023-08-17T11:25:02;98395.13;;;27.85;67.21
52137;BME280;69622;49.570;10.986;2023-08-17T11:28:06;98400.34;;;27.80;68.63
52137;BME280;69622;49.570;10.986;2023-08-17T11:31:10;98397.66;;;27.80;64.35
52137;BME280;69622;49.570;10.986;2023-08-17T11:34:14;98399.22;;;28.18;68.08
52137;BME280;69622;49.570;10.986;2023-08-17T11:37:16;98396.25;;;28.08;68.84
52137;BME280;69622;49.570;10.986;2023-08-17T11:40:17;98397.00;;;28.15;60.88
52137;BME280;69622;49.570;10.986;2023-08-17T11:43:19;98390.03;;;28.97;59.23
52137;BME280;69622;49.570;10.986;2023-08-17T11:46:22;98388.41;;;28.24;64.99
52137;BME280;69622;49.570;10.986;2023-08-17T11:49:30;98376.44;;;28.15;68.94
52137;BME280;69622;49.570;10.986;2023-08-17T11:52:38;98382.31;;;28.77;64.23
52137;BME280;69622;49.570;10.986;2023-08-17T11:55:40;98379.16;;;28.57;64.28
52137;BME280;69622;49.570;10.986;2023-08-17T11:58:47;98370.44;;;29.32;65.36
52137;BME280;69622;49.570;10.986;2023-08-17T12:01:49;98365.94;;;29.09;61.91
52137;BME280;69622;49.570;10.986;2023-08-17T12:04:52;98368.97;;;29.12;58.76
52137;BME280;69622;49.570;10.986;2023-08-17T12:07:53;98369.91;;;28.95;57.91
52137;BME280;69622;49.570;10.986;2023-08-17T12:10:55;98374.34;;;28.89;58.07
52137;BME280;69622;49.570;10.986;2023-08-17T12:13:57;98364.91;;;29.21;56.56
52137;BME280;69622;49.570;10.986;2023-08-17T12:17:00;98368.63;;;28.97;56.76
52137;BME280;69622;49.570;10.986;2023-08-17T12:20:01;98363.25;;;29.20;60.66
52137;BME280;69622;49.570;10.986;2023-08-17T12:23:04;98363.34;;;29.37;56.01
52137;BME280;69622;49.570;10.986;2023-08-17T12:26:06;98350.06;;;29.31;59.05
52137;BME280;69622;49.570;10.986;2023-08-17T12:29:08;98349.00;;;29.43;56.79
52137;BME280;69622;49.570;10.986;2023-08-17T12:32:09;98344.91;;;29.64;54.75
52137;BME280;69622;49.570;10.986;2023-08-17T12:35:10;98335.47;;;29.62;56.09
52137;BME280;69622;49.570;10.986;2023-08-17T12:38:12;98336.94;;;29.29;55.08
52137;BME280;69622;49.570;10.986;2023-08-17T12:41:13;98334.78;;;29.95;50.73
52137;BME280;69622;49.570;10.986;2023-08-17T12:44:15;98320.19;;;30.31;50.53
52137;BME280;69622;49.570;10.986;2023-08-17T12:47:18;98315.94;;;30.35;53.13
52137;BME280;69622;49.570;10.986;2023-08-17T12:50:19;98324.38;;;30.27;52.87
52137;BME280;69622;49.570;10.986;2023-08-17T12:53:21;98325.06;;;30.67;50.54
52137;BME280;69622;49.570;10.986;2023-08-17T12:56:23;98327.50;;;30.52;51.44
52137;BME280;69622;49.570;10.986;2023-08-17T12:59:24;98319.41;;;30.64;49.65
52137;BME280;69622;49.570;10.986;2023-08-17T13:02:26;98324.75;;;30.81;52.19
52137;BME280;69622;49.570;10.986;2023-08-17T13:05:28;98322.44;;;30.89;53.22
52137;BME280;69622;49.570;10.986;2023-08-17T13:08:29;98323.34;;;30.95;51.15
52137;BME280;69622;49.570;10.986;2023-08-17T13:11:31;98324.97;;;30.96;50.53
52137;BME280;69622;49.570;10.986;2023-08-17T13:14:33;98324.06;;;30.57;50.72
52137;BME280;69622;49.570;10.986;2023-08-17T13:17:34;98320.00;;;30.54;52.89
52137;BME280;69622;49.570;10.986;2023-08-17T13:20:36;98317.31;;;30.88;53.14
52137;BME280;69622;49.570;10.986;2023-08-17T13:23:38;98312.03;;;30.26;51.67
52137;BME280;69622;49.570;10.986;2023-08-17T13:26:39;98313.06;;;31.09;48.43
52137;BME280;69622;49.570;10.986;2023-08-17T13:29:43;98309.03;;;31.28;50.46
52137;BME280;69622;49.570;10.986;2023-08-17T13:32:45;98303.81;;;31.87;51.01
52137;BME280;69622;49.570;10.986;2023-08-17T13:35:47;98303.47;;;31.35;54.14
52137;BME280;69622;49.570;10.986;2023-08-17T13:38:49;98303.13;;;31.26;52.66
52137;BME280;69622;49.570;10.986;2023-08-17T13:41:50;98298.94;;;30.96;54.05
52137;BME280;69622;49.570;10.986;2023-08-17T13:44:51;98292.38;;;30.20;53.10
52137;BME280;69622;49.570;10.986;2023-08-17T13:47:53;98298.03;;;29.38;55.80
52137;BME280;69622;49.570;10.986;2023-08-17T13:50:54;98291.75;;;30.01;53.29
52137;BME280;69622;49.570;10.986;2023-08-17T13:53:56;98290.06;;;30.29;49.31
52137;BME280;69622;49.570;10.986;2023-08-17T13:56:57;98283.72;;;31.24;49.51
52137;BME280;69622;49.570;10.986;2023-08-17T13:59:59;98277.09;;;31.75;50.37
52137;BME280;69622;49.570;10.986;2023-08-17T14:03:00;98268.84;;;31.38;48.91
52137;BME280;69622;49.570;10.986;2023-08-17T14:06:03;98264.78;;;31.79;47.63
52137;BME280;69622;49.570;10.986;2023-08-17T14:09:05;98257.63;;;31.41;46.00
52137;BME280;69622;49.570;10.986;2023-08-17T14:12:06;98253.88;;;32.55;46.35
52137;BME280;69622;49.570;10.986;2023-08-17T14:15:08;98248.66;;;32.81;45.31
52137;BME280;69622;49.570;10.986;2023-08-17T14:18:10;98248.50;;;32.23;47.17
52137;BME280;69622;49.570;10.986;2023-08-17T14:21:11;98240.28;;;31.76;46.94
52137;BME280;69622;49.570;10.986;2023-08-17T14:24:13;98244.50;;;31.99;46.74
52137;BME280;69622;49.570;10.986;2023-08-17T14:27:14;98241.50;;;32.22;46.30
52137;BME280;69622;49.570;10.986;2023-08-17T14:30:16;98239.19;;;32.04;46.93
52137;BME280;69622;49.570;10.986;2023-08-17T14:33:17;98234.69;;;31.82;47.73
52137;BME280;69622;49.570;10.986;2023-08-17T14:36:19;98238.84;;;31.03;50.50
52137;BME280;69622;49.570;10.986;2023-08-17T14:39:21;98242.41;;;30.86;50.85
52137;BME280;69622;49.570;10.986;2023-08-17T14:42:22;98241.41;;;30.20;54.87
52137;BME280;69622;49.570;10.986;2023-08-17T14:45:25;98228.41;;;30.29;52.26
52137;BME280;69622;49.570;10.986;2023-08-17T14:48:27;98214.03;;;30.35;50.48
52137;BME280;69622;49.570;10.986;2023-08-17T14:51:28;98205.66;;;29.52;56.54
52137;BME280;69622;49.570;10.986;2023-08-17T14:54:32;98192.31;;;29.86;54.42
52137;BME280;69622;49.570;10.986;2023-08-17T14:57:34;98184.72;;;29.66;54.79
52137;BME280;69622;49.570;10.986;2023-08-17T15:00:35;98184.50;;;29.68;55.88
52137;BME280;69622;49.570;10.986;2023-08-17T15:03:36;98190.66;;;29.51;56.94
52137;BME280;69622;49.570;10.986;2023-08-17T15:06:39;98202.31;;;29.05;58.62
52137;BME280;69622;49.570;10.986;2023-08-17T15:09:42;98225.53;;;29.16;59.78
52137;BME280;69622;49.570;10.986;2023-08-17T15:12:44;98246.50;;;29.19;61.08
52137;BME280;69622;49.570;10.986;2023-08-17T15:15:46;98251.91;;;28.96;62.53
52137;BME280;69622;49.570;10.986;2023-08-17T15:18:47;98246.19;;;28.81;65.94
52137;BME280;69622;49.570;10.986;2023-08-17T15:21:49;98228.75;;;28.67;64.26
52137;BME280;69622;49.570;10.986;2023-08-17T15:24:50;98214.22;;;28.39;66.01
52137;BME280;69622;49.570;10.986;2023-08-17T15:27:52;98217.03;;;28.44;66.32
52137;BME280;69622;49.570;10.986;2023-08-17T15:31:02;98223.31;;;28.50;64.32
52137;BME280;69622;49.570;10.986;2023-08-17T15:34:04;98230.53;;;28.26;68.29
52137;BME280;69622;49.570;10.986;2023-08-17T15:37:06;98236.97;;;28.18;65.12
52137;BME280;69622;49.570;10.986;2023-08-17T15:40:08;98245.09;;;28.00;70.17
52137;BME280;69622;49.570;10.986;2023-08-17T15:43:09;98264.09;;;27.92;71.58
52137;BME280;69622;49.570;10.986;2023-08-17T15:46:11;98289.00;;;28.04;72.23
52137;BME280;69622;49.570;10.986;2023-08-17T15:49:12;98310.63;;;26.99;71.83
52137;BME280;69622;49.570;10.986;2023-08-17T15:52:14;98300.47;;;25.77;77.19
52137;BME280;69622;49.570;10.986;2023-08-17T15:55:16;98296.13;;;25.31;81.91